Time;durP1;ratioP1;P1;durP2;ratioP2;P2;SDS_P1;SDS_P2;PMS_P1;PMS_P2;Temp;Humidity;BMP_temperature;BMP_pressure;BME280_temperature;BME280_humidity;BME280_pressure;Samples;Min_cycle;Max_cycle;Signal;HPM_P1;HPM_P2
2022/01/16 00:00:40;;;;;;;21.17;14.10;;;;;;;1.41;51.59;95854.59;4933374;29;20063;-77
2022/01/16 00:05:50;;;;;;;20.42;12.98;;;;;;;1.39;52.83;95850.56;4904843;29;20110;-77
2022/01/16 00:08:15;;;;;;;22.60;13.27;;;;;;;1.36;53.40;95844.00;4899598;29;20036;-76
2022/01/16 00:10:41;;;;;;;23.48;13.57;;;;;;;1.37;53.26;95837.09;4900235;29;20047;-76
2022/01/16 00:13:06;;;;;;;24.08;13.57;;;;;;;1.37;53.80;95852.47;4915810;29;20051;-77
2022/01/16 00:15:31;;;;;;;20.80;13.32;;;;;;;1.38;54.28;95860.00;4933343;29;20071;-77
2022/01/16 00:18:09;;;;;;;24.13;13.43;;;;;;;1.36;54.63;95864.47;4933040;29;20050;-77
2022/01/16 00:20:34;;;;;;;24.08;12.50;;;;;;;1.38;54.90;95884.84;4915061;29;20051;-77
2022/01/16 00:23:00;;;;;;;22.60;12.25;;;;;;;1.38;55.29;95895.88;4915449;29;20056;-76
2022/01/16 00:25:26;;;;;;;25.00;15.13;;;;;;;1.43;55.68;95919.31;4915317;29;20040;-77
2022/01/16 00:27:51;;;;;;;20.02;12.40;;;;;;;1.41;55.76;95925.53;4915103;29;20033;-76
2022/01/16 00:30:19;;;;;;;17.65;11.82;;;;;;;1.38;56.72;95964.28;4922331;23;20056;-76
2022/01/16 00:32:45;;;;;;;20.45;13.18;;;;;;;1.38;56.07;95977.91;4915102;29;20135;-76
2022/01/16 00:35:21;;;;;;;26.33;15.10;;;;;;;1.39;56.75;95881.31;4932692;29;20532;-76
2022/01/16 00:37:52;;;;;;;20.13;12.70;;;;;;;1.39;56.75;95841.13;4930846;29;20047;-76
2022/01/16 00:40:17;;;;;;;17.98;12.98;;;;;;;1.42;56.75;95919.47;4932329;29;20078;-76
2022/01/16 00:42:49;;;;;;;22.92;13.13;;;;;;;1.46;56.71;95860.09;4932402;29;20031;-76
2022/01/16 00:45:19;;;;;;;21.90;12.63;;;;;;;1.41;57.32;95759.75;4884252;29;20539;-76
2022/01/16 00:47:44;;;;;;;23.23;13.07;;;;;;;1.33;57.01;95808.41;4899038;29;20668;-76
2022/01/16 00:50:10;;;;;;;26.80;15.15;;;;;;;1.42;57.40;95781.88;4932472;29;20039;-77
2022/01/16 00:52:35;;;;;;;22.02;14.68;;;;;;;1.42;57.63;95701.63;4912381;29;20154;-76
2022/01/16 00:55:03;;;;;;;21.30;12.82;;;;;;;1.45;56.76;95748.25;4932551;29;20035;-76
2022/01/16 00:57:30;;;;;;;23.98;15.15;;;;;;;1.49;56.53;95733.38;4915068;29;20059;-76
2022/01/16 00:59:55;;;;;;;28.92;15.00;;;;;;;1.47;56.71;95751.50;4899019;29;20067;-76
2022/01/16 01:02:21;;;;;;;26.52;15.02;;;;;;;1.42;56.82;95789.56;4930790;29;20267;-77
2022/01/16 01:04:47;;;;;;;36.83;18.48;;;;;;;1.42;57.18;95824.63;4931705;29;20039;-77
2022/01/16 01:07:16;;;;;;;42.65;22.90;;;;;;;1.41;57.16;95817.91;4932556;29;20050;-75
2022/01/16 01:09:44;;;;;;;32.13;18.95;;;;;;;1.47;57.03;95797.63;4910581;29;20074;-76
2022/01/16 01:12:13;;;;;;;31.20;16.40;;;;;;;1.49;56.77;95815.41;4915215;29;20115;-75
2022/01/16 01:14:53;;;;;;;24.85;15.73;;;;;;;1.49;56.33;95844.41;4915381;29;20863;-75
2022/01/16 01:17:23;;;;;;;35.13;19.30;;;;;;;1.50;56.31;95810.13;4913994;29;20032;-75
2022/01/16 01:19:49;;;;;;;41.67;21.45;;;;;;;1.46;56.35;95811.38;4931246;29;20511;-75
2022/01/16 01:22:14;;;;;;;56.08;23.83;;;;;;;1.40;57.22;95831.66;4913121;29;20032;-76
2022/01/16 01:24:40;;;;;;;61.15;26.38;;;;;;;1.44;57.05;95802.22;4932135;29;20452;-75
2022/01/16 01:27:23;;;;;;;60.65;28.50;;;;;;;1.30;57.26;95820.69;4931297;29;20071;-76
2022/01/16 01:29:59;;;;;;;24.88;15.57;;;;;;;1.28;57.51;95833.66;4930974;29;20048;-76
2022/01/16 01:32:25;;;;;;;27.50;17.02;;;;;;;1.29;57.77;95812.22;4915415;29;20050;-76
2022/01/16 01:34:50;;;;;;;25.75;15.60;;;;;;;1.29;57.35;95811.41;4914829;29;20059;-76
2022/01/16 01:37:16;;;;;;;22.50;14.15;;;;;;;1.29;57.70;95829.34;4914877;29;20759;-76
2022/01/16 01:39:41;;;;;;;22.63;12.15;;;;;;;1.25;58.00;95822.91;4929975;29;20480;-76
2022/01/16 01:42:10;;;;;;;19.48;12.48;;;;;;;1.27;57.92;95846.63;4936126;23;20060;-76
2022/01/16 01:52:51;;;;;;;22.70;12.80;;;;;;;1.22;57.63;95879.59;4917742;29;20407;-76
2022/01/16 01:55:17;;;;;;;15.18;11.20;;;;;;;1.20;57.95;95847.22;4931948;29;20040;-75
2022/01/16 01:57:42;;;;;;;21.52;11.52;;;;;;;1.25;57.84;95871.59;4914541;29;20066;-76
2022/01/16 02:00:08;;;;;;;20.17;12.23;;;;;;;1.24;58.27;95878.47;4930581;29;20044;-76
2022/01/16 02:05:31;;;;;;;24.63;12.73;;;;;;;1.22;58.42;95869.34;4920226;29;20056;-76
2022/01/16 02:07:57;;;;;;;19.58;10.88;;;;;;;1.26;58.07;95868.88;4931868;29;20127;-76
2022/01/16 02:10:23;;;;;;;26.52;11.63;;;;;;;1.18;58.74;95877.31;4935208;23;20536;-78
2022/01/16 02:12:56;;;;;;;20.50;11.95;;;;;;;1.16;58.60;95881.78;4931771;29;20047;-76
2022/01/16 02:29:42;;;;;;;20.48;13.40;;;;;;;0.57;62.92;95870.34;4915633;29;20423;-77
2022/01/16 02:34:42;;;;;;;17.77;13.18;;;;;;;0.39;64.95;95866.94;4928692;29;20134;-77
2022/01/16 02:37:11;;;;;;;22.30;13.88;;;;;;;0.33;64.80;95857.28;4928295;29;20115;-75
2022/01/16 02:39:40;;;;;;;18.45;12.63;;;;;;;0.33;64.85;95857.28;4943435;29;20451;-75
2022/01/16 02:42:06;;;;;;;24.83;13.63;;;;;;;0.39;64.93;95855.91;4941961;29;20102;-77
2022/01/16 02:44:41;;;;;;;21.33;13.60;;;;;;;0.49;64.50;95862.59;4943250;29;20039;-77
2022/01/16 02:47:11;;;;;;;18.38;11.98;;;;;;;0.63;64.92;95863.03;4943880;29;20031;-77
2022/01/16 02:49:40;;;;;;;21.60;13.25;;;;;;;0.75;63.54;95861.88;4926189;29;20042;-74
2022/01/16 02:52:10;;;;;;;23.15;13.43;;;;;;;0.93;63.59;95857.56;4912261;29;20051;-77
2022/01/16 02:54:38;;;;;;;27.90;14.18;;;;;;;1.09;63.31;95849.22;4926429;29;20050;-77
2022/01/16 02:57:05;;;;;;;28.02;15.35;;;;;;;1.20;63.12;95847.22;4942062;29;20502;-76
2022/01/16 02:59:30;;;;;;;23.75;15.20;;;;;;;1.30;62.46;95852.28;4945725;29;20452;-76
2022/01/16 03:01:55;;;;;;;24.23;15.18;;;;;;;1.38;62.45;95848.97;4927460;29;20050;-77
2022/01/16 03:04:21;;;;;;;22.85;14.27;;;;;;;1.45;61.83;95845.63;4926647;29;20503;-77
2022/01/16 03:06:47;;;;;;;19.65;13.20;;;;;;;1.53;61.63;95847.47;4895119;29;20480;-77
2022/01/16 03:09:12;;;;;;;27.75;16.65;;;;;;;1.59;60.94;95840.91;4910163;29;20046;-76
2022/01/16 03:11:45;;;;;;;27.67;16.33;;;;;;;1.55;61.00;95837.84;4943663;29;20039;-77
2022/01/16 03:14:12;;;;;;;27.42;14.50;;;;;;;1.60;60.96;95842.53;4926966;29;20043;-77
2022/01/16 03:16:42;;;;;;;22.48;14.57;;;;;;;1.51;61.33;95844.25;4927198;29;20044;-77
2022/01/16 03:21:54;;;;;;;37.22;20.42;;;;;;;1.58;60.33;95842.69;4915818;29;20050;-77
2022/01/16 03:24:24;;;;;;;34.45;19.10;;;;;;;1.61;60.85;95839.81;4911847;29;20074;-77
2022/01/16 03:26:51;;;;;;;32.58;20.23;;;;;;;1.64;60.51;95839.53;4927082;29;20066;-77
2022/01/16 03:29:16;;;;;;;28.23;16.52;;;;;;;1.61;60.34;95850.06;4924014;29;20438;-77
2022/01/16 03:31:42;;;;;;;25.75;16.73;;;;;;;1.63;60.68;95855.06;4944379;29;20040;-77
2022/01/16 03:34:07;;;;;;;26.48;16.40;;;;;;;1.59;60.62;95841.72;4942980;29;20055;-76
2022/01/16 03:36:36;;;;;;;23.05;14.55;;;;;;;1.66;60.38;95847.06;4941069;29;20043;-77
2022/01/16 03:39:03;;;;;;;25.02;15.80;;;;;;;1.65;60.82;95848.84;4909655;29;20040;-77
2022/01/16 03:41:29;;;;;;;24.83;17.10;;;;;;;1.63;60.06;95853.31;4925784;29;20039;-77
2022/01/16 03:44:01;;;;;;;20.77;14.00;;;;;;;1.69;60.27;95857.81;4925349;29;20051;-77
2022/01/16 03:46:29;;;;;;;27.77;16.10;;;;;;;1.69;60.30;95857.03;4926515;29;20039;-76
2022/01/16 03:48:55;;;;;;;35.13;18.77;;;;;;;1.65;60.04;95866.78;4924977;29;20122;-76
2022/01/16 03:51:23;;;;;;;35.40;19.35;;;;;;;1.63;60.31;95863.56;4943138;29;20183;-77
2022/01/16 03:53:50;;;;;;;30.20;18.65;;;;;;;1.58;60.19;95858.06;4926552;29;20047;-77
2022/01/16 03:56:15;;;;;;;39.47;22.42;;;;;;;1.56;60.15;95859.97;4925708;29;20023;-76
2022/01/16 03:58:41;;;;;;;30.35;18.35;;;;;;;1.53;60.41;95862.84;4908472;29;20050;-76
2022/01/16 04:01:06;;;;;;;38.63;20.27;;;;;;;1.55;60.63;95860.13;4942285;29;20031;-77
2022/01/16 04:03:31;;;;;;;46.72;24.58;;;;;;;1.53;60.29;95856.91;4943357;29;20043;-77
2022/01/16 04:05:57;;;;;;;47.60;25.65;;;;;;;1.42;60.80;95860.50;4943842;29;20059;-76
2022/01/16 04:08:22;;;;;;;36.60;19.42;;;;;;;1.46;60.38;95872.91;4942855;29;20035;-76
2022/01/16 04:10:48;;;;;;;30.58;18.35;;;;;;;1.54;60.50;95869.56;4925799;29;20044;-76
2022/01/16 04:13:15;;;;;;;27.33;17.13;;;;;;;1.51;60.10;95869.88;4914694;23;20452;-76
2022/01/16 04:15:41;;;;;;;30.73;17.05;;;;;;;1.55;60.45;95875.50;4933402;29;20045;-76
2022/01/16 04:18:07;;;;;;;31.42;20.30;;;;;;;1.55;60.09;95881.44;4933478;29;20534;-76
2022/01/16 04:20:33;;;;;;;36.22;18.95;;;;;;;1.57;59.95;95874.41;4917049;24;20043;-76
2022/01/16 04:22:58;;;;;;;30.65;17.23;;;;;;;1.59;59.57;95887.06;4923269;29;20496;-76
2022/01/16 04:25:24;;;;;;;32.92;18.77;;;;;;;1.58;59.78;95888.03;4923854;29;20162;-76
2022/01/16 04:27:49;;;;;;;34.63;19.50;;;;;;;1.64;59.94;95880.56;4933723;23;20043;-75
2022/01/16 04:30:15;;;;;;;36.13;19.45;;;;;;;1.72;59.41;95882.34;4932908;29;20098;-75
2022/01/16 04:32:40;;;;;;;35.40;19.50;;;;;;;1.75;58.68;95894.88;4933723;29;20051;-75
2022/01/16 04:35:06;;;;;;;37.35;21.00;;;;;;;1.73;58.67;95899.34;4933390;29;20047;-75
2022/01/16 04:37:32;;;;;;;35.30;19.70;;;;;;;1.75;58.57;95903.34;4900335;29;20126;-76
2022/01/16 04:40:01;;;;;;;28.83;17.95;;;;;;;1.78;58.60;95897.13;4914855;29;20103;-75
2022/01/16 04:45:10;;;;;;;33.58;18.65;;;;;;;1.83;58.34;95883.88;4918107;29;20042;-75
2022/01/16 04:47:36;;;;;;;31.30;18.95;;;;;;;1.78;58.65;95897.94;4915592;29;20027;-76
2022/01/16 04:50:01;;;;;;;32.97;19.58;;;;;;;1.83;58.38;95894.94;4899081;29;20479;-76
2022/01/16 04:52:26;;;;;;;49.05;25.13;;;;;;;1.89;58.13;95898.63;4928992;29;20063;-76
2022/01/16 04:54:52;;;;;;;67.40;35.90;;;;;;;1.93;57.75;95889.69;4913014;29;20040;-76
2022/01/16 04:57:17;;;;;;;82.70;44.38;;;;;;;2.00;57.55;95894.06;4932695;29;20087;-76
2022/01/16 04:59:45;;;;;;;99.63;47.45;;;;;;;1.95;57.62;95886.03;4936207;23;20060;-76
2022/01/16 05:02:10;;;;;;;100.80;50.05;;;;;;;2.01;57.54;95887.97;4932726;29;20028;-76
2022/01/16 05:04:36;;;;;;;69.32;43.10;;;;;;;1.97;57.66;95896.94;4932476;29;20499;-76
2022/01/16 05:07:01;;;;;;;55.45;31.92;;;;;;;1.97;57.77;95896.94;4915279;29;20066;-76
2022/01/16 05:09:27;;;;;;;47.95;25.40;;;;;;;2.01;57.15;95887.97;4914478;29;20050;-76
2022/01/16 05:11:56;;;;;;;51.20;30.02;;;;;;;2.02;57.27;95883.66;4915188;29;20039;-76
2022/01/16 05:17:09;;;;;;;49.15;29.70;;;;;;;2.10;57.19;95887.03;4902527;29;20046;-76
2022/01/16 05:19:37;;;;;;;49.67;29.58;;;;;;;2.11;57.58;95882.72;4930195;29;20055;-76
2022/01/16 05:22:08;;;;;;;35.22;23.77;;;;;;;2.12;57.42;95879.22;4932255;29;20059;-77
2022/01/16 05:24:34;;;;;;;25.77;17.88;;;;;;;2.10;57.33;95896.50;4898693;29;20043;-76
2022/01/16 05:27:00;;;;;;;27.40;17.17;;;;;;;2.13;57.60;95896.22;4932350;29;20056;-76
2022/01/16 05:29:25;;;;;;;29.40;17.58;;;;;;;2.14;57.43;95887.56;4930047;29;20459;-76
2022/01/16 05:31:51;;;;;;;28.77;17.60;;;;;;;2.17;57.27;95882.13;4932201;29;20411;-76
2022/01/16 05:34:19;;;;;;;27.25;16.23;;;;;;;2.18;57.16;95882.94;4929829;29;20032;-76
2022/01/16 05:36:47;;;;;;;28.67;17.02;;;;;;;2.20;57.14;95886.13;4931538;29;20078;-76
2022/01/16 05:39:15;;;;;;;34.47;18.40;;;;;;;2.20;57.30;95881.81;4932065;29;20063;-76
2022/01/16 05:41:41;;;;;;;25.73;17.27;;;;;;;2.20;57.05;95886.13;4931245;29;20048;-76
2022/01/16 05:44:06;;;;;;;32.88;19.33;;;;;;;2.20;57.35;95886.13;4931686;29;20043;-76
2022/01/16 05:46:31;;;;;;;32.88;19.55;;;;;;;2.23;57.14;95891.75;4932033;29;20114;-76
2022/01/16 05:48:57;;;;;;;34.67;21.40;;;;;;;2.24;57.19;95895.94;4898669;29;20051;-76
2022/01/16 05:51:29;;;;;;;37.08;21.20;;;;;;;2.22;57.19;95889.34;4914653;29;20460;-75
2022/01/16 05:53:56;;;;;;;34.25;19.60;;;;;;;2.22;57.89;95890.16;4915310;29;20032;-76
2022/01/16 05:56:22;;;;;;;39.33;22.25;;;;;;;2.22;57.78;95900.41;4931864;29;20047;-76
2022/01/16 05:58:47;;;;;;;24.33;15.82;;;;;;;2.30;57.82;95903.03;4914481;29;20583;-76
2022/01/16 06:01:13;;;;;;;21.52;15.07;;;;;;;2.40;56.89;95903.72;4931540;29;20431;-76
2022/01/16 06:03:38;;;;;;;25.25;15.30;;;;;;;2.44;56.49;95901.66;4934807;29;20492;-75
2022/01/16 06:06:04;;;;;;;28.60;17.85;;;;;;;2.37;57.38;95893.75;4918311;29;20043;-78
2022/01/16 06:08:29;;;;;;;29.83;18.80;;;;;;;2.42;57.16;95906.91;4917682;29;20424;-74
2022/01/16 06:10:55;;;;;;;55.05;27.90;;;;;;;2.49;56.27;95906.31;4935081;29;20381;-75
2022/01/16 06:13:20;;;;;;;53.28;29.75;;;;;;;2.48;56.19;95902.16;4917213;29;20044;-75
2022/01/16 06:15:46;;;;;;;45.42;25.95;;;;;;;2.51;55.88;95899.25;4917729;29;20044;-75
2022/01/16 06:18:12;;;;;;;42.13;25.13;;;;;;;2.53;55.71;95912.75;4934266;29;20123;-75
2022/01/16 06:20:40;;;;;;;40.08;21.40;;;;;;;2.44;56.35;95913.66;4934947;29;20039;-75
2022/01/16 06:23:08;;;;;;;44.78;24.48;;;;;;;2.53;56.24;95907.63;4934803;29;20040;-75
2022/01/16 06:25:34;;;;;;;62.58;33.42;;;;;;;2.61;56.17;95912.78;4917388;29;20154;-75
2022/01/16 06:27:59;;;;;;;53.50;29.95;;;;;;;2.69;55.80;95917.94;4934935;29;20052;-75
2022/01/16 06:30:25;;;;;;;35.35;20.52;;;;;;;2.72;55.79;95927.91;4917243;29;20076;-76
2022/01/16 06:32:50;;;;;;;30.70;18.88;;;;;;;2.68;55.30;95932.53;4917719;29;20373;-77
2022/01/16 06:35:16;;;;;;;36.92;20.33;;;;;;;2.62;54.44;95927.25;4934327;29;20095;-77
2022/01/16 06:37:42;;;;;;;31.27;18.23;;;;;;;2.56;55.02;95943.25;4902097;29;20393;-74
2022/01/16 06:40:08;;;;;;;34.42;18.80;;;;;;;2.44;54.86;95941.91;4917392;29;20114;-75
2022/01/16 06:42:33;;;;;;;38.15;18.45;;;;;;;2.37;55.70;95947.66;4934542;29;20036;-74
2022/01/16 06:44:59;;;;;;;43.95;19.92;;;;;;;2.39;55.98;95945.72;4916663;29;20046;-74
2022/01/16 06:47:24;;;;;;;35.58;19.60;;;;;;;2.47;55.03;95936.47;4901411;29;20508;-74
2022/01/16 06:49:49;;;;;;;40.80;19.95;;;;;;;2.50;55.49;95938.72;4916721;29;20192;-74
2022/01/16 06:52:18;;;;;;;33.22;20.25;;;;;;;2.51;55.37;95943.72;4901684;29;20497;-75
2022/01/16 06:54:43;;;;;;;31.27;18.77;;;;;;;2.61;54.90;95935.91;4916800;29;20118;-75
2022/01/16 06:57:08;;;;;;;40.60;18.60;;;;;;;2.63;54.82;95939.13;4917409;29;20115;-77
2022/01/16 06:59:39;;;;;;;30.45;18.27;;;;;;;2.67;54.90;95942.97;4936255;29;20048;-77
2022/01/16 07:02:08;;;;;;;30.10;16.23;;;;;;;2.78;54.39;95949.59;4917863;29;20424;-77
2022/01/16 07:04:33;;;;;;;25.63;17.25;;;;;;;2.76;53.98;95952.31;4916786;29;20123;-77
2022/01/16 07:06:59;;;;;;;27.83;16.63;;;;;;;2.84;54.16;95960.03;4901251;29;20031;-77
2022/01/16 07:09:27;;;;;;;22.83;14.40;;;;;;;2.95;53.56;95964.91;4916685;29;20043;-77
2022/01/16 07:11:53;;;;;;;24.42;14.02;;;;;;;2.95;53.73;95964.91;4934488;29;20039;-78
2022/01/16 07:14:18;;;;;;;20.02;13.95;;;;;;;3.09;53.36;95970.38;4913901;29;20488;-77
2022/01/16 07:16:46;;;;;;;28.38;15.65;;;;;;;3.10;52.96;95977.16;4934222;29;20052;-77
2022/01/16 07:19:11;;;;;;;22.70;13.20;;;;;;;3.19;52.79;95966.72;4933384;29;20059;-77
2022/01/16 07:21:39;;;;;;;18.88;12.20;;;;;;;3.39;52.70;95961.28;4884899;29;20091;-77
2022/01/16 07:24:16;;;;;;;19.83;12.90;;;;;;;3.49;51.82;95969.66;4900970;29;20046;-78
2022/01/16 07:26:45;;;;;;;20.10;13.45;;;;;;;3.64;51.61;95959.56;4922531;29;20043;-78
2022/01/16 07:29:13;;;;;;;19.08;12.95;;;;;;;3.77;52.33;95963.25;4956677;29;20178;-78
2022/01/16 07:31:45;;;;;;;22.38;14.43;;;;;;;3.98;50.96;95967.91;4955519;29;20035;-79
2022/01/16 07:34:10;;;;;;;22.27;13.40;;;;;;;4.04;52.71;95964.66;4940579;29;20087;-79
2022/01/16 07:36:43;;;;;;;24.02;14.38;;;;;;;4.29;51.03;95967.22;4943030;23;20043;-77
2022/01/16 07:39:09;;;;;;;41.72;17.88;;;;;;;4.44;49.88;95974.09;4911446;29;20050;-77
2022/01/16 07:41:37;;;;;;;41.13;23.98;;;;;;;4.51;49.61;95971.66;4944507;29;20040;-77
2022/01/16 07:44:02;;;;;;;43.88;24.67;;;;;;;4.63;50.11;95978.06;4910100;29;20031;-76
2022/01/16 07:46:28;;;;;;;55.47;25.73;;;;;;;4.75;49.22;95976.75;4944594;29;20070;-77
2022/01/16 07:48:54;;;;;;;62.03;28.40;;;;;;;4.89;49.79;95971.88;4925525;29;20385;-77
2022/01/16 07:51:19;;;;;;;52.40;27.63;;;;;;;4.99;48.79;95972.44;4894815;29;20047;-75
2022/01/16 07:53:45;;;;;;;57.17;30.95;;;;;;;4.97;48.40;95980.34;4942160;29;20071;-75
2022/01/16 07:56:10;;;;;;;49.53;27.98;;;;;;;4.83;48.40;95976.69;4909830;29;20043;-75
2022/01/16 07:58:36;;;;;;;52.03;27.63;;;;;;;4.81;48.81;95980.41;4924833;29;20039;-74
2022/01/16 08:01:05;;;;;;;59.03;30.15;;;;;;;4.91;48.47;95982.81;4942811;29;20039;-75
2022/01/16 08:03:30;;;;;;;48.13;24.75;;;;;;;4.89;48.06;95982.19;4942285;29;20031;-75
2022/01/16 08:05:55;;;;;;;36.92;19.73;;;;;;;4.72;49.15;95992.53;4925484;29;20054;-75
2022/01/16 08:08:21;;;;;;;19.73;12.30;;;;;;;4.56;48.62;95979.72;4941046;29;20027;-75
2022/01/16 08:10:46;;;;;;;22.23;11.80;;;;;;;4.37;49.47;95977.47;4909958;29;20392;-75
2022/01/16 08:13:14;;;;;;;20.88;11.85;;;;;;;4.21;49.56;95965.44;4942031;29;20039;-75
2022/01/16 08:15:40;;;;;;;25.95;11.32;;;;;;;3.95;50.15;95975.94;4923626;29;20044;-76
2022/01/16 08:18:06;;;;;;;20.98;12.57;;;;;;;3.82;50.78;95983.34;4907803;29;20087;-75
2022/01/16 08:20:31;;;;;;;20.80;12.38;;;;;;;3.75;51.35;95984.97;4941411;29;20031;-75
2022/01/16 08:22:56;;;;;;;19.60;13.57;;;;;;;3.74;51.77;95983.34;4924308;29;20039;-75
2022/01/16 08:25:22;;;;;;;26.50;14.68;;;;;;;3.75;51.24;95982.41;4924545;29;20063;-75
2022/01/16 08:27:48;;;;;;;20.83;11.93;;;;;;;3.73;51.54;95979.16;4909225;29;20031;-74
2022/01/16 08:30:13;;;;;;;19.27;12.40;;;;;;;3.83;52.17;95967.75;4942323;29;20510;-74
2022/01/16 08:32:39;;;;;;;15.48;10.88;;;;;;;4.07;50.95;95974.66;4924918;29;20031;-75
2022/01/16 08:35:06;;;;;;;16.90;10.95;;;;;;;4.29;50.75;95980.09;4892936;29;20035;-75
2022/01/16 08:37:34;;;;;;;20.55;11.27;;;;;;;4.39;50.23;95975.53;4942026;29;20039;-75
2022/01/16 08:39:59;;;;;;;19.52;11.90;;;;;;;4.48;49.75;95979.72;4924388;29;20219;-75
2022/01/16 08:42:25;;;;;;;13.70;9.02;;;;;;;4.40;48.55;95959.16;4908686;29;20039;-74
2022/01/16 08:44:50;;;;;;;16.83;10.70;;;;;;;4.15;49.65;95960.97;4941686;29;20491;-76
2022/01/16 08:47:19;;;;;;;15.52;10.65;;;;;;;4.09;50.18;95962.44;4923306;29;20500;-76
2022/01/16 08:49:44;;;;;;;13.52;10.25;;;;;;;4.06;50.82;95983.31;4942271;29;20050;-78
2022/01/16 08:52:09;;;;;;;26.77;13.93;;;;;;;4.13;50.20;95970.63;4941781;29;20039;-76
2022/01/16 08:54:35;;;;;;;30.63;14.45;;;;;;;4.16;49.54;95965.16;4941574;29;20034;-76
2022/01/16 08:57:01;;;;;;;28.02;15.50;;;;;;;4.15;50.70;95960.97;4924806;29;20047;-77
2022/01/16 08:59:27;;;;;;;26.52;13.15;;;;;;;4.30;50.53;95963.66;4942129;29;20090;-76
2022/01/16 09:01:52;;;;;;;20.92;13.70;;;;;;;4.47;49.95;95967.81;4909009;29;20050;-76
2022/01/16 09:04:18;;;;;;;20.33;13.10;;;;;;;4.59;49.25;95963.13;4924150;29;20412;-77
2022/01/16 09:06:43;;;;;;;16.15;10.70;;;;;;;4.66;49.26;95946.81;4941284;29;20548;-78
2022/01/16 09:09:09;;;;;;;17.90;9.40;;;;;;;4.68;52.11;95944.88;4926570;29;20030;-79
2022/01/16 09:11:35;;;;;;;19.13;10.13;;;;;;;4.71;56.18;95949.69;4926881;29;20053;-80
2022/01/16 09:14:00;;;;;;;15.52;10.05;;;;;;;4.70;52.47;95953.22;4944599;29;20815;-80
2022/01/16 09:16:26;;;;;;;20.75;10.80;;;;;;;4.69;53.45;95946.47;4944819;29;20027;-80
2022/01/16 09:18:53;;;;;;;18.83;11.55;;;;;;;4.62;52.05;95945.56;4912395;29;20476;-80
2022/01/16 09:21:19;;;;;;;18.90;11.98;;;;;;;4.58;50.77;95936.56;4944757;29;20035;-80
2022/01/16 09:23:48;;;;;;;17.88;10.95;;;;;;;4.48;54.05;95938.50;4911587;29;20042;-78
2022/01/16 09:26:13;;;;;;;16.23;9.93;;;;;;;4.38;54.79;95937.88;4923648;29;20028;-75
2022/01/16 09:28:42;;;;;;;19.73;9.40;;;;;;;4.35;53.03;95933.06;4908652;29;20035;-77
2022/01/16 09:31:12;;;;;;;12.40;9.30;;;;;;;4.26;53.22;95931.50;4925117;29;20036;-75
2022/01/16 09:33:40;;;;;;;17.30;9.85;;;;;;;4.12;53.26;95922.69;4916113;29;20101;-75
2022/01/16 09:36:09;;;;;;;14.48;10.02;;;;;;;3.89;54.13;95922.53;4924654;28;20042;-76
2022/01/16 09:38:35;;;;;;;14.13;10.10;;;;;;;3.77;52.15;95921.28;4909116;29;20036;-72
2022/01/16 09:41:04;;;;;;;18.02;10.25;;;;;;;3.75;52.28;95918.09;4940629;29;20045;-76
2022/01/16 09:43:32;;;;;;;24.52;10.55;;;;;;;3.81;51.25;95925.94;4901737;29;20043;-77
2022/01/16 09:45:57;;;;;;;16.75;9.90;;;;;;;3.80;51.20;95918.41;4924713;29;20067;-76
2022/01/16 09:48:23;;;;;;;14.50;9.50;;;;;;;3.74;52.19;95914.72;4923784;29;20094;-75
2022/01/16 09:50:48;;;;;;;16.35;10.43;;;;;;;3.76;51.30;95906.81;4923785;29;20027;-74
2022/01/16 09:53:14;;;;;;;17.73;11.43;;;;;;;3.87;51.44;95904.69;4941569;29;20134;-75
2022/01/16 09:55:40;;;;;;;14.90;9.30;;;;;;;3.87;51.45;95902.13;4923499;29;20514;-74
2022/01/16 09:58:06;;;;;;;11.88;8.95;;;;;;;3.90;52.17;95893.28;4941241;29;20675;-74
2022/01/16 10:00:32;;;;;;;16.33;10.05;;;;;;;4.00;52.10;95901.63;4932068;29;20031;-76
2022/01/16 10:02:57;;;;;;;16.10;10.30;;;;;;;4.11;51.84;95896.16;4899807;29;20086;-74
2022/01/16 10:05:24;;;;;;;16.77;10.30;;;;;;;4.18;50.89;95891.94;4940194;29;20490;-75
2022/01/16 10:07:49;;;;;;;22.85;9.82;;;;;;;4.26;51.11;95880.81;4923836;29;20114;-76
2022/01/16 10:10:15;;;;;;;13.23;9.70;;;;;;;4.43;50.71;95884.13;4908281;29;20349;-75
2022/01/16 10:12:47;;;;;;;20.10;10.68;;;;;;;4.47;50.10;95880.25;4907274;29;20039;-75
2022/01/16 10:15:20;;;;;;;15.57;10.38;;;;;;;4.43;50.25;95873.84;4923498;29;20092;-76
2022/01/16 10:17:46;;;;;;;;;;;;;;;4.44;50.54;95881.38;4941401;29;20028;-75
2022/01/16 10:20:12;;;;;;;14.88;10.63;;;;;;;4.51;50.40;95881.50;4924029;29;19941;-76
2022/01/16 10:22:45;;;;;;;17.75;11.63;;;;;;;4.66;50.41;95874.69;4908203;29;20480;-75
2022/01/16 10:25:11;;;;;;;16.95;10.60;;;;;;;4.68;50.21;95877.88;4908305;29;20035;-76
2022/01/16 10:27:38;;;;;;;19.73;11.05;;;;;;;4.77;49.41;95871.72;4922910;29;20133;-75
2022/01/16 10:30:07;;;;;;;17.17;10.00;;;;;;;4.75;49.37;95868.53;4907792;29;20500;-75
2022/01/16 10:32:37;;;;;;;13.07;9.27;;;;;;;4.71;49.57;95863.84;4939875;29;20031;-75
2022/01/16 10:35:22;;;;;;;17.45;10.30;;;;;;;4.74;49.45;95854.03;4906200;29;20028;-75
2022/01/16 10:37:51;;;;;;;14.93;10.65;;;;;;;4.84;49.17;95848.66;4923146;29;20044;-75
2022/01/16 10:40:21;;;;;;;16.25;10.75;;;;;;;4.70;49.18;95847.59;4939839;29;20053;-75
2022/01/16 10:42:50;;;;;;;19.23;11.10;;;;;;;4.71;48.96;95851.78;4922362;29;20028;-75
2022/01/16 10:45:26;;;;;;;18.60;10.25;;;;;;;4.64;48.97;95850.06;4938915;29;20035;-75
2022/01/16 10:47:55;;;;;;;19.42;10.95;;;;;;;4.74;49.22;95845.50;4894525;29;20027;-75
2022/01/16 10:50:31;;;;;;;15.60;10.73;;;;;;;4.79;49.91;95848.38;4943034;29;20042;-75
2022/01/16 10:53:03;;;;;;;16.08;10.73;;;;;;;4.92;49.44;95845.25;4944295;29;20530;-75
2022/01/16 10:55:41;;;;;;;18.17;11.48;;;;;;;4.94;49.08;95835.56;4942146;29;20036;-75
2022/01/16 10:58:15;;;;;;;15.13;10.32;;;;;;;5.05;48.22;95833.38;4927469;29;20448;-74
2022/01/16 11:01:00;;;;;;;20.20;12.00;;;;;;;5.10;47.55;95825.13;4944835;29;20138;-82
2022/01/16 11:03:29;;;;;;;22.52;11.63;;;;;;;5.13;48.61;95829.94;4944364;29;20066;-76
2022/01/16 11:05:55;;;;;;;16.60;11.40;;;;;;;5.24;48.28;95816.66;4942989;29;20103;-75
2022/01/16 11:08:25;;;;;;;16.95;12.18;;;;;;;5.27;48.05;95816.28;4926008;29;20511;-75
2022/01/16 11:10:52;;;;;;;18.25;12.13;;;;;;;5.27;48.10;95824.03;4911120;29;20039;-74
2022/01/16 11:13:19;;;;;;;18.02;11.63;;;;;;;5.35;47.72;95823.16;4911556;29;20027;-78
2022/01/16 11:15:46;;;;;;;17.13;12.20;;;;;;;5.36;47.22;95814.44;4912207;29;20967;-74
2022/01/16 11:18:12;;;;;;;19.17;12.05;;;;;;;5.41;47.74;95815.53;4941877;29;20069;-75
2022/01/16 11:20:38;;;;;;;18.95;12.73;;;;;;;5.46;47.61;95807.25;4909744;29;20435;-75
2022/01/16 11:25:52;;;;;;;18.58;12.30;;;;;;;5.50;47.35;95811.09;4926042;29;20514;-75
2022/01/16 11:28:18;;;;;;;19.63;12.38;;;;;;;5.48;47.05;95805.31;4910658;29;20086;-75
2022/01/16 11:30:49;;;;;;;31.60;15.75;;;;;;;5.50;47.02;95807.69;4925695;29;20426;-75
2022/01/16 11:33:15;;;;;;;26.90;14.70;;;;;;;5.51;47.14;95801.56;4926541;29;20146;-78
2022/01/16 11:36:13;;;;;;;42.75;19.30;;;;;;;5.66;46.67;95784.31;4912676;29;20027;-77
2022/01/16 11:38:53;;;;;;;27.67;13.05;;;;;;;5.58;46.74;95784.41;4925563;29;20047;-75
2022/01/16 11:41:25;;;;;;;25.15;12.77;;;;;;;5.59;47.46;95786.03;4926646;29;20376;-74
2022/01/16 11:43:57;;;;;;;28.70;14.43;;;;;;;5.55;46.83;95766.72;4925629;29;20048;-74
2022/01/16 11:46:25;;;;;;;24.65;13.45;;;;;;;5.67;47.09;95781.56;4911294;29;20531;-75
2022/01/16 11:49:03;;;;;;;29.83;14.23;;;;;;;5.68;46.28;95777.19;4942963;29;20087;-75
2022/01/16 11:51:33;;;;;;;19.92;12.68;;;;;;;5.70;46.37;95775.28;4942307;29;20066;-75
2022/01/16 11:53:58;;;;;;;16.38;12.82;;;;;;;5.82;46.16;95779.00;4943184;29;20055;-75
2022/01/16 11:56:42;;;;;;;23.20;12.70;;;;;;;5.87;46.23;95774.13;4941348;29;20086;-74
2022/01/16 11:59:14;;;;;;;21.48;12.55;;;;;;;5.87;46.48;95770.72;4942786;29;20169;-75
2022/01/16 12:01:43;;;;;;;22.98;13.88;;;;;;;5.89;46.00;95768.78;4943283;29;20039;-74
2022/01/16 12:04:30;;;;;;;22.00;14.90;;;;;;;5.88;45.67;95770.56;4909356;29;20086;-75
2022/01/16 12:07:11;;;;;;;18.98;13.82;;;;;;;5.74;46.35;95771.34;4942581;29;20532;-74
2022/01/16 12:09:37;;;;;;;18.02;12.98;;;;;;;5.50;46.05;95774.16;4942429;29;20078;-75